マカオ の空港の天気 - METARとTAF

マカオ国際空港 ( VMMC / MFM ) - マカオ タイパ島
飛行場実況気象(Metar)
観測時間10/21 00:30 CST (10/20 16:30 UTC)
風向・風速東 5m/s
視程10km以上
天気現象
少しの雲 雲底高度 610m
全天の4割程度の雲 雲底高度 910m
気温25℃
湿度78%
気圧1018hPa
METARVMMC 201630Z 09010KT 060V130 9999 FEW020 SCT030 25/21 Q1018 NOSIG
過去の天気等 Google飛行場航空写真 Wunderground天気予報

過去48時間のMETAR

飛行場予報(TAF)
発表時間: 10/20 19:01 CST (10/20 11:01 UTC)
予報対象時間: 20日20時 CST ~ 22日2時 CST
風向・風速東 6m/s
視程10km以上
少しの雲 雲底高度 610m
全天の4割程度の雲 雲底高度 1070m
TAF VMMC 201101Z 2012/2118 09012KT 9999 FEW020 SCT035